sensor_id;sensor_type;location;lat;lon;timestamp;P1;durP1;ratioP1;P2;durP2;ratioP2
15102;SDS011;7652;53.584;9.998;2022-09-09T00:02:13;28.13;;;23.43;;
15102;SDS011;7652;53.584;9.998;2022-09-09T00:05:23;33.13;;;24.90;;
15102;SDS011;7652;53.584;9.998;2022-09-09T00:08:36;27.77;;;21.70;;
15102;SDS011;7652;53.584;9.998;2022-09-09T00:11:47;27.47;;;22.67;;
15102;SDS011;7652;53.584;9.998;2022-09-09T00:14:54;26.63;;;22.23;;
15102;SDS011;7652;53.584;9.998;2022-09-09T00:18:01;31.23;;;23.90;;
15102;SDS011;7652;53.584;9.998;2022-09-09T00:21:15;27.93;;;23.13;;
15102;SDS011;7652;53.584;9.998;2022-09-09T00:24:23;29.77;;;24.57;;
15102;SDS011;7652;53.584;9.998;2022-09-09T00:27:30;40.50;;;26.97;;
15102;SDS011;7652;53.584;9.998;2022-09-09T00:30:39;29.47;;;24.57;;
15102;SDS011;7652;53.584;9.998;2022-09-09T00:33:43;34.93;;;26.73;;
15102;SDS011;7652;53.584;9.998;2022-09-09T00:36:47;49.00;;;29.60;;
15102;SDS011;7652;53.584;9.998;2022-09-09T00:39:55;40.23;;;27.70;;
15102;SDS011;7652;53.584;9.998;2022-09-09T00:43:09;42.03;;;29.40;;
15102;SDS011;7652;53.584;9.998;2022-09-09T00:46:32;43.43;;;31.37;;
15102;SDS011;7652;53.584;9.998;2022-09-09T00:49:47;58.03;;;32.13;;
15102;SDS011;7652;53.584;9.998;2022-09-09T00:53:14;38.07;;;29.40;;
15102;SDS011;7652;53.584;9.998;2022-09-09T00:56:30;39.27;;;28.77;;
15102;SDS011;7652;53.584;9.998;2022-09-09T00:59:46;32.43;;;26.20;;
15102;SDS011;7652;53.584;9.998;2022-09-09T01:06:22;30.37;;;25.47;;
15102;SDS011;7652;53.584;9.998;2022-09-09T01:09:32;31.43;;;24.13;;
15102;SDS011;7652;53.584;9.998;2022-09-09T01:12:45;28.47;;;23.73;;
15102;SDS011;7652;53.584;9.998;2022-09-09T01:15:51;28.33;;;23.37;;
15102;SDS011;7652;53.584;9.998;2022-09-09T01:19:02;34.10;;;23.80;;
15102;SDS011;7652;53.584;9.998;2022-09-09T01:22:09;40.93;;;26.90;;
15102;SDS011;7652;53.584;9.998;2022-09-09T01:25:22;37.60;;;26.90;;
15102;SDS011;7652;53.584;9.998;2022-09-09T01:28:49;42.53;;;28.77;;
15102;SDS011;7652;53.584;9.998;2022-09-09T01:31:54;48.40;;;31.20;;
15102;SDS011;7652;53.584;9.998;2022-09-09T01:34:58;42.97;;;29.00;;
15102;SDS011;7652;53.584;9.998;2022-09-09T01:38:01;37.10;;;26.97;;
15102;SDS011;7652;53.584;9.998;2022-09-09T01:41:04;38.43;;;29.40;;
15102;SDS011;7652;53.584;9.998;2022-09-09T01:44:09;39.40;;;28.50;;
15102;SDS011;7652;53.584;9.998;2022-09-09T01:47:14;30.13;;;24.67;;
15102;SDS011;7652;53.584;9.998;2022-09-09T01:50:19;31.17;;;24.50;;
15102;SDS011;7652;53.584;9.998;2022-09-09T01:53:23;31.70;;;23.67;;
15102;SDS011;7652;53.584;9.998;2022-09-09T01:56:31;27.93;;;23.30;;
15102;SDS011;7652;53.584;9.998;2022-09-09T01:59:47;34.67;;;25.50;;
15102;SDS011;7652;53.584;9.998;2022-09-09T02:02:57;30.73;;;24.40;;
15102;SDS011;7652;53.584;9.998;2022-09-09T02:06:10;32.37;;;25.50;;
15102;SDS011;7652;53.584;9.998;2022-09-09T02:09:27;29.00;;;23.50;;
15102;SDS011;7652;53.584;9.998;2022-09-09T02:12:32;28.10;;;22.87;;
15102;SDS011;7652;53.584;9.998;2022-09-09T02:15:38;26.37;;;22.07;;
15102;SDS011;7652;53.584;9.998;2022-09-09T02:18:47;24.30;;;20.73;;
15102;SDS011;7652;53.584;9.998;2022-09-09T02:21:53;26.47;;;20.23;;
15102;SDS011;7652;53.584;9.998;2022-09-09T02:24:58;25.43;;;21.37;;
15102;SDS011;7652;53.584;9.998;2022-09-09T02:28:03;22.00;;;18.80;;
15102;SDS011;7652;53.584;9.998;2022-09-09T02:31:10;22.40;;;19.17;;
15102;SDS011;7652;53.584;9.998;2022-09-09T02:34:13;29.03;;;21.70;;
15102;SDS011;7652;53.584;9.998;2022-09-09T02:37:18;28.30;;;21.13;;
15102;SDS011;7652;53.584;9.998;2022-09-09T02:40:26;25.37;;;20.83;;
15102;SDS011;7652;53.584;9.998;2022-09-09T02:43:30;25.87;;;19.97;;
15102;SDS011;7652;53.584;9.998;2022-09-09T02:46:39;22.53;;;19.43;;
15102;SDS011;7652;53.584;9.998;2022-09-09T02:49:58;22.70;;;18.77;;
15102;SDS011;7652;53.584;9.998;2022-09-09T02:53:10;24.63;;;20.07;;
15102;SDS011;7652;53.584;9.998;2022-09-09T02:56:20;26.10;;;21.40;;
15102;SDS011;7652;53.584;9.998;2022-09-09T02:59:25;30.63;;;20.90;;
15102;SDS011;7652;53.584;9.998;2022-09-09T03:02:30;23.73;;;18.63;;
15102;SDS011;7652;53.584;9.998;2022-09-09T03:05:33;21.40;;;18.60;;
15102;SDS011;7652;53.584;9.998;2022-09-09T03:08:37;20.97;;;18.67;;
15102;SDS011;7652;53.584;9.998;2022-09-09T03:11:42;19.00;;;17.00;;
15102;SDS011;7652;53.584;9.998;2022-09-09T03:14:45;19.37;;;17.37;;
15102;SDS011;7652;53.584;9.998;2022-09-09T03:17:50;19.67;;;17.57;;
15102;SDS011;7652;53.584;9.998;2022-09-09T03:20:53;19.23;;;16.23;;
15102;SDS011;7652;53.584;9.998;2022-09-09T03:23:56;19.73;;;17.63;;
15102;SDS011;7652;53.584;9.998;2022-09-09T03:26:59;22.27;;;18.17;;
15102;SDS011;7652;53.584;9.998;2022-09-09T03:30:02;21.00;;;17.07;;
15102;SDS011;7652;53.584;9.998;2022-09-09T03:33:08;21.83;;;18.60;;
15102;SDS011;7652;53.584;9.998;2022-09-09T03:36:11;20.07;;;17.73;;
15102;SDS011;7652;53.584;9.998;2022-09-09T03:39:14;19.93;;;17.83;;
15102;SDS011;7652;53.584;9.998;2022-09-09T03:42:18;19.50;;;17.20;;
15102;SDS011;7652;53.584;9.998;2022-09-09T03:45:21;26.77;;;20.37;;
15102;SDS011;7652;53.584;9.998;2022-09-09T03:48:25;26.20;;;19.47;;
15102;SDS011;7652;53.584;9.998;2022-09-09T03:51:29;24.73;;;19.13;;
15102;SDS011;7652;53.584;9.998;2022-09-09T03:54:32;25.47;;;19.97;;
15102;SDS011;7652;53.584;9.998;2022-09-09T03:57:36;26.83;;;20.00;;
15102;SDS011;7652;53.584;9.998;2022-09-09T04:00:40;27.10;;;20.97;;
15102;SDS011;7652;53.584;9.998;2022-09-09T04:03:47;25.83;;;20.73;;
15102;SDS011;7652;53.584;9.998;2022-09-09T04:06:51;26.63;;;20.97;;
15102;SDS011;7652;53.584;9.998;2022-09-09T04:09:54;27.47;;;21.00;;
15102;SDS011;7652;53.584;9.998;2022-09-09T04:12:58;26.67;;;20.10;;
15102;SDS011;7652;53.584;9.998;2022-09-09T04:16:02;24.57;;;19.50;;
15102;SDS011;7652;53.584;9.998;2022-09-09T04:19:07;28.53;;;22.43;;
15102;SDS011;7652;53.584;9.998;2022-09-09T04:22:10;24.83;;;19.23;;
15102;SDS011;7652;53.584;9.998;2022-09-09T04:25:13;22.73;;;19.67;;
15102;SDS011;7652;53.584;9.998;2022-09-09T04:28:16;24.13;;;19.13;;
15102;SDS011;7652;53.584;9.998;2022-09-09T04:31:21;25.57;;;19.97;;
15102;SDS011;7652;53.584;9.998;2022-09-09T04:34:26;22.50;;;18.97;;
15102;SDS011;7652;53.584;9.998;2022-09-09T04:37:29;23.77;;;18.67;;
15102;SDS011;7652;53.584;9.998;2022-09-09T04:40:32;20.37;;;18.27;;
15102;SDS011;7652;53.584;9.998;2022-09-09T04:43:36;25.13;;;17.90;;
15102;SDS011;7652;53.584;9.998;2022-09-09T04:46:39;23.33;;;18.40;;
15102;SDS011;7652;53.584;9.998;2022-09-09T04:49:43;18.17;;;16.20;;
15102;SDS011;7652;53.584;9.998;2022-09-09T04:52:46;17.20;;;15.47;;
15102;SDS011;7652;53.584;9.998;2022-09-09T04:55:50;16.97;;;15.23;;
15102;SDS011;7652;53.584;9.998;2022-09-09T04:58:53;18.00;;;15.90;;
15102;SDS011;7652;53.584;9.998;2022-09-09T05:01:56;15.83;;;14.27;;
15102;SDS011;7652;53.584;9.998;2022-09-09T05:05:04;15.67;;;14.07;;
15102;SDS011;7652;53.584;9.998;2022-09-09T05:08:07;15.77;;;13.23;;
15102;SDS011;7652;53.584;9.998;2022-09-09T05:11:15;17.60;;;14.43;;
15102;SDS011;7652;53.584;9.998;2022-09-09T05:14:18;14.73;;;13.13;;
15102;SDS011;7652;53.584;9.998;2022-09-09T05:17:21;15.60;;;14.00;;
15102;SDS011;7652;53.584;9.998;2022-09-09T05:20:26;14.00;;;12.50;;
15102;SDS011;7652;53.584;9.998;2022-09-09T05:23:29;14.17;;;12.67;;
15102;SDS011;7652;53.584;9.998;2022-09-09T05:26:33;15.47;;;13.87;;
15102;SDS011;7652;53.584;9.998;2022-09-09T05:29:36;13.27;;;11.27;;
15102;SDS011;7652;53.584;9.998;2022-09-09T05:32:39;14.20;;;12.80;;
15102;SDS011;7652;53.584;9.998;2022-09-09T05:35:43;14.93;;;12.33;;
15102;SDS011;7652;53.584;9.998;2022-09-09T05:38:46;13.23;;;11.90;;
15102;SDS011;7652;53.584;9.998;2022-09-09T05:41:50;14.90;;;13.27;;
15102;SDS011;7652;53.584;9.998;2022-09-09T05:44:53;13.40;;;12.03;;
15102;SDS011;7652;53.584;9.998;2022-09-09T05:47:56;12.17;;;10.87;;
15102;SDS011;7652;53.584;9.998;2022-09-09T05:51:03;13.50;;;12.10;;
15102;SDS011;7652;53.584;9.998;2022-09-09T05:54:08;12.47;;;11.17;;
15102;SDS011;7652;53.584;9.998;2022-09-09T05:57:11;12.30;;;10.93;;
15102;SDS011;7652;53.584;9.998;2022-09-09T06:00:14;12.43;;;11.10;;
15102;SDS011;7652;53.584;9.998;2022-09-09T06:03:17;9.50;;;8.57;;
15102;SDS011;7652;53.584;9.998;2022-09-09T06:06:26;11.63;;;8.50;;
15102;SDS011;7652;53.584;9.998;2022-09-09T06:09:33;8.53;;;7.73;;
15102;SDS011;7652;53.584;9.998;2022-09-09T06:12:36;10.23;;;8.10;;
15102;SDS011;7652;53.584;9.998;2022-09-09T06:15:40;7.73;;;7.00;;
15102;SDS011;7652;53.584;9.998;2022-09-09T06:18:52;7.43;;;6.73;;
15102;SDS011;7652;53.584;9.998;2022-09-09T06:21:59;10.23;;;7.10;;
15102;SDS011;7652;53.584;9.998;2022-09-09T06:25:02;7.93;;;7.13;;
15102;SDS011;7652;53.584;9.998;2022-09-09T06:28:05;7.30;;;6.60;;
15102;SDS011;7652;53.584;9.998;2022-09-09T06:31:09;7.10;;;6.40;;
15102;SDS011;7652;53.584;9.998;2022-09-09T06:34:13;8.63;;;7.33;;
15102;SDS011;7652;53.584;9.998;2022-09-09T06:37:18;9.33;;;7.20;;
15102;SDS011;7652;53.584;9.998;2022-09-09T06:40:21;7.60;;;6.83;;
15102;SDS011;7652;53.584;9.998;2022-09-09T06:43:24;9.30;;;6.67;;
15102;SDS011;7652;53.584;9.998;2022-09-09T06:46:28;8.83;;;7.93;;
15102;SDS011;7652;53.584;9.998;2022-09-09T06:49:34;8.70;;;7.27;;
15102;SDS011;7652;53.584;9.998;2022-09-09T06:52:38;8.67;;;7.60;;
15102;SDS011;7652;53.584;9.998;2022-09-09T06:55:41;8.77;;;6.73;;
15102;SDS011;7652;53.584;9.998;2022-09-09T06:58:46;9.43;;;7.23;;
15102;SDS011;7652;53.584;9.998;2022-09-09T07:01:50;9.70;;;8.67;;
15102;SDS011;7652;53.584;9.998;2022-09-09T07:04:56;9.67;;;8.67;;
15102;SDS011;7652;53.584;9.998;2022-09-09T07:08:01;7.80;;;7.00;;
15102;SDS011;7652;53.584;9.998;2022-09-09T07:11:05;7.83;;;7.03;;
15102;SDS011;7652;53.584;9.998;2022-09-09T07:14:12;7.10;;;6.50;;
15102;SDS011;7652;53.584;9.998;2022-09-09T07:17:16;7.00;;;5.83;;
15102;SDS011;7652;53.584;9.998;2022-09-09T07:20:19;7.80;;;6.37;;
15102;SDS011;7652;53.584;9.998;2022-09-09T07:23:24;7.43;;;6.00;;
15102;SDS011;7652;53.584;9.998;2022-09-09T07:26:27;7.77;;;5.27;;
15102;SDS011;7652;53.584;9.998;2022-09-09T07:29:32;7.20;;;6.27;;
15102;SDS011;7652;53.584;9.998;2022-09-09T07:32:35;6.37;;;5.30;;
15102;SDS011;7652;53.584;9.998;2022-09-09T07:35:38;7.70;;;6.07;;
15102;SDS011;7652;53.584;9.998;2022-09-09T07:38:43;6.10;;;5.60;;
15102;SDS011;7652;53.584;9.998;2022-09-09T07:41:48;6.10;;;5.40;;
15102;SDS011;7652;53.584;9.998;2022-09-09T07:44:52;6.47;;;5.30;;
15102;SDS011;7652;53.584;9.998;2022-09-09T07:47:56;5.70;;;5.20;;
15102;SDS011;7652;53.584;9.998;2022-09-09T07:51:03;5.37;;;4.60;;
15102;SDS011;7652;53.584;9.998;2022-09-09T07:54:10;5.30;;;4.80;;
15102;SDS011;7652;53.584;9.998;2022-09-09T07:57:15;8.53;;;5.00;;
15102;SDS011;7652;53.584;9.998;2022-09-09T08:00:20;6.20;;;5.57;;
15102;SDS011;7652;53.584;9.998;2022-09-09T08:03:23;4.80;;;4.37;;
15102;SDS011;7652;53.584;9.998;2022-09-09T08:06:27;4.43;;;4.03;;
15102;SDS011;7652;53.584;9.998;2022-09-09T08:09:32;5.70;;;4.47;;
15102;SDS011;7652;53.584;9.998;2022-09-09T08:12:35;5.10;;;4.07;;
15102;SDS011;7652;53.584;9.998;2022-09-09T08:15:38;5.13;;;4.50;;
15102;SDS011;7652;53.584;9.998;2022-09-09T08:18:41;7.67;;;5.67;;
15102;SDS011;7652;53.584;9.998;2022-09-09T08:21:44;5.07;;;4.57;;
15102;SDS011;7652;53.584;9.998;2022-09-09T08:24:49;5.30;;;4.30;;
15102;SDS011;7652;53.584;9.998;2022-09-09T08:27:52;5.37;;;4.43;;
15102;SDS011;7652;53.584;9.998;2022-09-09T08:30:55;4.90;;;3.57;;
15102;SDS011;7652;53.584;9.998;2022-09-09T08:34:06;4.30;;;4.00;;
15102;SDS011;7652;53.584;9.998;2022-09-09T08:37:10;5.37;;;4.50;;
15102;SDS011;7652;53.584;9.998;2022-09-09T08:40:17;5.00;;;4.10;;
15102;SDS011;7652;53.584;9.998;2022-09-09T08:43:25;6.00;;;3.97;;
15102;SDS011;7652;53.584;9.998;2022-09-09T08:46:32;6.53;;;4.50;;
15102;SDS011;7652;53.584;9.998;2022-09-09T08:49:48;4.23;;;3.93;;
15102;SDS011;7652;53.584;9.998;2022-09-09T08:53:02;4.77;;;4.20;;
15102;SDS011;7652;53.584;9.998;2022-09-09T08:56:10;4.83;;;4.37;;
15102;SDS011;7652;53.584;9.998;2022-09-09T08:59:17;4.40;;;3.97;;
15102;SDS011;7652;53.584;9.998;2022-09-09T09:02:22;4.10;;;3.60;;
15102;SDS011;7652;53.584;9.998;2022-09-09T09:05:30;5.20;;;3.87;;
15102;SDS011;7652;53.584;9.998;2022-09-09T09:08:41;4.07;;;3.67;;
15102;SDS011;7652;53.584;9.998;2022-09-09T09:15:16;5.63;;;3.90;;
15102;SDS011;7652;53.584;9.998;2022-09-09T09:18:23;5.97;;;3.30;;
15102;SDS011;7652;53.584;9.998;2022-09-09T09:21:28;5.10;;;3.40;;
15102;SDS011;7652;53.584;9.998;2022-09-09T09:24:40;5.40;;;3.70;;
15102;SDS011;7652;53.584;9.998;2022-09-09T09:27:51;4.63;;;3.50;;
15102;SDS011;7652;53.584;9.998;2022-09-09T09:31:03;3.87;;;2.70;;
15102;SDS011;7652;53.584;9.998;2022-09-09T09:34:08;4.37;;;3.10;;
15102;SDS011;7652;53.584;9.998;2022-09-09T09:37:15;3.43;;;3.13;;
15102;SDS011;7652;53.584;9.998;2022-09-09T09:40:21;4.47;;;2.80;;
15102;SDS011;7652;53.584;9.998;2022-09-09T09:43:28;6.23;;;2.57;;
15102;SDS011;7652;53.584;9.998;2022-09-09T09:46:32;6.50;;;2.77;;
15102;SDS011;7652;53.584;9.998;2022-09-09T09:49:35;4.27;;;1.93;;
15102;SDS011;7652;53.584;9.998;2022-09-09T09:52:39;5.80;;;1.73;;
15102;SDS011;7652;53.584;9.998;2022-09-09T09:55:47;5.53;;;2.20;;
15102;SDS011;7652;53.584;9.998;2022-09-09T09:58:56;3.83;;;2.23;;
15102;SDS011;7652;53.584;9.998;2022-09-09T10:02:06;3.33;;;1.87;;
15102;SDS011;7652;53.584;9.998;2022-09-09T10:05:21;2.93;;;1.77;;
15102;SDS011;7652;53.584;9.998;2022-09-09T10:08:28;3.10;;;1.80;;
15102;SDS011;7652;53.584;9.998;2022-09-09T10:11:35;2.17;;;1.70;;
15102;SDS011;7652;53.584;9.998;2022-09-09T10:14:50;3.73;;;1.70;;
15102;SDS011;7652;53.584;9.998;2022-09-09T10:18:05;1.93;;;1.60;;
15102;SDS011;7652;53.584;9.998;2022-09-09T10:21:23;4.00;;;1.87;;
15102;SDS011;7652;53.584;9.998;2022-09-09T10:28:33;5.00;;;2.10;;
15102;SDS011;7652;53.584;9.998;2022-09-09T10:32:02;2.47;;;1.57;;
15102;SDS011;7652;53.584;9.998;2022-09-09T10:35:27;1.27;;;1.17;;
15102;SDS011;7652;53.584;9.998;2022-09-09T10:38:33;1.70;;;1.37;;
15102;SDS011;7652;53.584;9.998;2022-09-09T10:41:45;3.43;;;1.30;;
15102;SDS011;7652;53.584;9.998;2022-09-09T10:44:59;3.53;;;1.50;;
15102;SDS011;7652;53.584;9.998;2022-09-09T10:48:24;2.47;;;1.23;;
15102;SDS011;7652;53.584;9.998;2022-09-09T10:51:36;3.07;;;1.40;;
15102;SDS011;7652;53.584;9.998;2022-09-09T10:54:50;3.67;;;1.30;;
15102;SDS011;7652;53.584;9.998;2022-09-09T10:57:59;3.00;;;1.50;;
15102;SDS011;7652;53.584;9.998;2022-09-09T11:01:09;1.53;;;0.80;;
15102;SDS011;7652;53.584;9.998;2022-09-09T11:04:19;3.80;;;1.23;;
15102;SDS011;7652;53.584;9.998;2022-09-09T11:07:28;2.20;;;1.03;;
15102;SDS011;7652;53.584;9.998;2022-09-09T11:10:38;1.57;;;0.97;;
15102;SDS011;7652;53.584;9.998;2022-09-09T11:13:45;2.03;;;0.93;;
15102;SDS011;7652;53.584;9.998;2022-09-09T11:16:53;1.73;;;1.00;;
15102;SDS011;7652;53.584;9.998;2022-09-09T11:20:03;2.50;;;1.00;;
15102;SDS011;7652;53.584;9.998;2022-09-09T11:23:09;3.17;;;0.90;;
15102;SDS011;7652;53.584;9.998;2022-09-09T11:26:18;2.53;;;1.00;;
15102;SDS011;7652;53.584;9.998;2022-09-09T11:29:40;2.93;;;1.30;;
15102;SDS011;7652;53.584;9.998;2022-09-09T11:33:08;2.40;;;1.37;;
15102;SDS011;7652;53.584;9.998;2022-09-09T11:36:31;2.93;;;1.00;;
15102;SDS011;7652;53.584;9.998;2022-09-09T11:39:55;3.60;;;1.00;;
15102;SDS011;7652;53.584;9.998;2022-09-09T11:43:17;2.73;;;1.33;;
15102;SDS011;7652;53.584;9.998;2022-09-09T11:46:31;1.43;;;0.93;;
15102;SDS011;7652;53.584;9.998;2022-09-09T11:49:39;2.13;;;1.30;;
15102;SDS011;7652;53.584;9.998;2022-09-09T11:52:45;2.40;;;1.20;;
15102;SDS011;7652;53.584;9.998;2022-09-09T11:56:06;2.70;;;1.27;;
15102;SDS011;7652;53.584;9.998;2022-09-09T11:59:19;1.87;;;1.30;;
15102;SDS011;7652;53.584;9.998;2022-09-09T12:02:23;2.20;;;1.23;;
15102;SDS011;7652;53.584;9.998;2022-09-09T12:05:35;3.33;;;1.20;;
15102;SDS011;7652;53.584;9.998;2022-09-09T12:08:42;4.10;;;1.17;;
15102;SDS011;7652;53.584;9.998;2022-09-09T12:11:47;3.73;;;1.03;;
15102;SDS011;7652;53.584;9.998;2022-09-09T12:14:55;2.60;;;1.30;;
15102;SDS011;7652;53.584;9.998;2022-09-09T12:18:01;2.77;;;1.10;;
15102;SDS011;7652;53.584;9.998;2022-09-09T12:21:06;3.13;;;1.13;;
15102;SDS011;7652;53.584;9.998;2022-09-09T12:24:19;3.30;;;1.50;;
15102;SDS011;7652;53.584;9.998;2022-09-09T12:27:27;2.40;;;1.40;;
15102;SDS011;7652;53.584;9.998;2022-09-09T12:30:37;3.40;;;1.40;;
15102;SDS011;7652;53.584;9.998;2022-09-09T12:33:49;4.53;;;1.30;;
15102;SDS011;7652;53.584;9.998;2022-09-09T12:36:55;2.30;;;1.30;;
15102;SDS011;7652;53.584;9.998;2022-09-09T12:40:05;4.60;;;2.10;;
15102;SDS011;7652;53.584;9.998;2022-09-09T12:43:19;3.37;;;2.00;;
15102;SDS011;7652;53.584;9.998;2022-09-09T12:46:27;2.33;;;1.53;;
15102;SDS011;7652;53.584;9.998;2022-09-09T12:49:35;5.10;;;1.47;;
15102;SDS011;7652;53.584;9.998;2022-09-09T12:52:42;2.47;;;1.30;;
15102;SDS011;7652;53.584;9.998;2022-09-09T12:55:51;1.47;;;1.33;;
15102;SDS011;7652;53.584;9.998;2022-09-09T12:58:55;1.90;;;1.17;;
15102;SDS011;7652;53.584;9.998;2022-09-09T13:01:59;4.77;;;1.60;;
15102;SDS011;7652;53.584;9.998;2022-09-09T13:05:08;2.27;;;1.30;;
15102;SDS011;7652;53.584;9.998;2022-09-09T13:08:17;2.67;;;1.47;;
15102;SDS011;7652;53.584;9.998;2022-09-09T13:11:24;3.40;;;1.57;;
15102;SDS011;7652;53.584;9.998;2022-09-09T13:14:31;2.83;;;1.70;;
15102;SDS011;7652;53.584;9.998;2022-09-09T13:17:38;2.23;;;1.63;;
15102;SDS011;7652;53.584;9.998;2022-09-09T13:20:45;2.67;;;1.90;;
15102;SDS011;7652;53.584;9.998;2022-09-09T13:23:49;4.17;;;1.97;;
15102;SDS011;7652;53.584;9.998;2022-09-09T13:26:55;4.17;;;2.13;;
15102;SDS011;7652;53.584;9.998;2022-09-09T13:29:59;2.07;;;1.57;;
15102;SDS011;7652;53.584;9.998;2022-09-09T13:33:05;5.30;;;2.13;;
15102;SDS011;7652;53.584;9.998;2022-09-09T13:36:29;2.40;;;2.20;;
15102;SDS011;7652;53.584;9.998;2022-09-09T13:39:33;6.37;;;2.63;;
15102;SDS011;7652;53.584;9.998;2022-09-09T13:42:40;9.00;;;2.80;;
15102;SDS011;7652;53.584;9.998;2022-09-09T13:45:51;5.37;;;3.00;;
15102;SDS011;7652;53.584;9.998;2022-09-09T13:48:56;4.03;;;2.47;;
15102;SDS011;7652;53.584;9.998;2022-09-09T13:52:04;3.17;;;2.60;;
15102;SDS011;7652;53.584;9.998;2022-09-09T13:55:11;5.97;;;3.03;;
15102;SDS011;7652;53.584;9.998;2022-09-09T13:58:16;4.63;;;3.03;;
15102;SDS011;7652;53.584;9.998;2022-09-09T14:01:20;4.07;;;3.30;;
15102;SDS011;7652;53.584;9.998;2022-09-09T14:04:29;5.87;;;3.70;;
15102;SDS011;7652;53.584;9.998;2022-09-09T14:07:32;7.93;;;4.27;;
15102;SDS011;7652;53.584;9.998;2022-09-09T14:10:35;5.77;;;3.50;;
15102;SDS011;7652;53.584;9.998;2022-09-09T14:13:40;5.07;;;3.73;;
15102;SDS011;7652;53.584;9.998;2022-09-09T14:16:43;8.17;;;4.20;;
15102;SDS011;7652;53.584;9.998;2022-09-09T14:19:46;5.17;;;3.60;;
15102;SDS011;7652;53.584;9.998;2022-09-09T14:22:49;4.87;;;3.57;;
15102;SDS011;7652;53.584;9.998;2022-09-09T14:25:52;4.33;;;3.40;;
15102;SDS011;7652;53.584;9.998;2022-09-09T14:28:58;5.53;;;4.13;;
15102;SDS011;7652;53.584;9.998;2022-09-09T14:32:02;7.73;;;4.20;;
15102;SDS011;7652;53.584;9.998;2022-09-09T14:35:11;7.63;;;4.43;;
15102;SDS011;7652;53.584;9.998;2022-09-09T14:38:13;6.97;;;4.57;;
15102;SDS011;7652;53.584;9.998;2022-09-09T14:41:19;4.50;;;2.30;;
15102;SDS011;7652;53.584;9.998;2022-09-09T14:44:25;4.93;;;2.63;;
15102;SDS011;7652;53.584;9.998;2022-09-09T14:47:28;2.60;;;2.10;;
15102;SDS011;7652;53.584;9.998;2022-09-09T14:50:31;3.40;;;2.40;;
15102;SDS011;7652;53.584;9.998;2022-09-09T14:53:36;5.00;;;2.50;;
15102;SDS011;7652;53.584;9.998;2022-09-09T14:56:39;4.70;;;2.40;;
15102;SDS011;7652;53.584;9.998;2022-09-09T14:59:43;4.80;;;2.40;;
15102;SDS011;7652;53.584;9.998;2022-09-09T15:02:46;3.60;;;2.20;;
15102;SDS011;7652;53.584;9.998;2022-09-09T15:05:49;4.67;;;3.90;;
15102;SDS011;7652;53.584;9.998;2022-09-09T15:08:53;3.53;;;2.50;;
15102;SDS011;7652;53.584;9.998;2022-09-09T15:11:58;4.87;;;2.67;;
15102;SDS011;7652;53.584;9.998;2022-09-09T15:15:05;4.80;;;2.70;;
15102;SDS011;7652;53.584;9.998;2022-09-09T15:18:08;3.00;;;2.27;;
15102;SDS011;7652;53.584;9.998;2022-09-09T15:21:11;3.97;;;3.23;;
15102;SDS011;7652;53.584;9.998;2022-09-09T15:24:16;3.33;;;2.60;;
15102;SDS011;7652;53.584;9.998;2022-09-09T15:27:19;4.40;;;3.10;;
15102;SDS011;7652;53.584;9.998;2022-09-09T15:30:25;5.07;;;3.10;;
15102;SDS011;7652;53.584;9.998;2022-09-09T15:33:28;6.37;;;3.20;;
15102;SDS011;7652;53.584;9.998;2022-09-09T15:36:32;3.93;;;3.23;;
15102;SDS011;7652;53.584;9.998;2022-09-09T15:39:36;4.40;;;3.37;;
15102;SDS011;7652;53.584;9.998;2022-09-09T15:42:39;7.20;;;3.43;;
15102;SDS011;7652;53.584;9.998;2022-09-09T15:45:43;4.40;;;2.60;;
15102;SDS011;7652;53.584;9.998;2022-09-09T15:48:49;2.50;;;2.13;;
15102;SDS011;7652;53.584;9.998;2022-09-09T15:51:55;3.07;;;2.33;;
15102;SDS011;7652;53.584;9.998;2022-09-09T15:55:00;3.73;;;2.27;;
15102;SDS011;7652;53.584;9.998;2022-09-09T15:58:03;1.97;;;1.80;;
15102;SDS011;7652;53.584;9.998;2022-09-09T16:01:07;3.40;;;2.13;;
15102;SDS011;7652;53.584;9.998;2022-09-09T16:04:12;3.77;;;2.27;;
15102;SDS011;7652;53.584;9.998;2022-09-09T16:07:16;4.13;;;2.03;;
15102;SDS011;7652;53.584;9.998;2022-09-09T16:10:20;3.67;;;2.43;;
15102;SDS011;7652;53.584;9.998;2022-09-09T16:13:23;2.13;;;1.87;;
15102;SDS011;7652;53.584;9.998;2022-09-09T16:16:29;1.70;;;1.40;;
15102;SDS011;7652;53.584;9.998;2022-09-09T16:19:32;2.90;;;1.70;;
15102;SDS011;7652;53.584;9.998;2022-09-09T16:22:36;3.37;;;2.07;;
15102;SDS011;7652;53.584;9.998;2022-09-09T16:25:39;2.73;;;1.80;;
15102;SDS011;7652;53.584;9.998;2022-09-09T16:28:43;4.90;;;2.60;;
15102;SDS011;7652;53.584;9.998;2022-09-09T16:31:49;2.77;;;1.90;;
15102;SDS011;7652;53.584;9.998;2022-09-09T16:34:53;4.00;;;1.80;;
15102;SDS011;7652;53.584;9.998;2022-09-09T16:37:56;3.20;;;1.90;;
15102;SDS011;7652;53.584;9.998;2022-09-09T16:40:59;6.27;;;2.47;;
15102;SDS011;7652;53.584;9.998;2022-09-09T16:44:03;2.07;;;1.70;;
15102;SDS011;7652;53.584;9.998;2022-09-09T16:47:08;2.00;;;1.90;;
15102;SDS011;7652;53.584;9.998;2022-09-09T16:50:11;3.67;;;1.97;;
15102;SDS011;7652;53.584;9.998;2022-09-09T16:53:14;2.10;;;1.70;;
15102;SDS011;7652;53.584;9.998;2022-09-09T16:56:18;2.53;;;1.87;;
15102;SDS011;7652;53.584;9.998;2022-09-09T16:59:22;4.27;;;1.97;;
15102;SDS011;7652;53.584;9.998;2022-09-09T17:02:26;4.07;;;2.10;;
15102;SDS011;7652;53.584;9.998;2022-09-09T17:05:30;4.70;;;2.00;;
15102;SDS011;7652;53.584;9.998;2022-09-09T17:08:34;2.27;;;1.53;;
15102;SDS011;7652;53.584;9.998;2022-09-09T17:11:37;3.70;;;2.77;;
15102;SDS011;7652;53.584;9.998;2022-09-09T17:14:41;4.53;;;1.90;;
15102;SDS011;7652;53.584;9.998;2022-09-09T17:17:45;4.23;;;1.80;;
15102;SDS011;7652;53.584;9.998;2022-09-09T17:20:50;2.83;;;1.40;;
15102;SDS011;7652;53.584;9.998;2022-09-09T17:23:54;1.93;;;1.50;;
15102;SDS011;7652;53.584;9.998;2022-09-09T17:26:57;1.93;;;1.40;;
15102;SDS011;7652;53.584;9.998;2022-09-09T17:30:02;2.73;;;1.43;;
15102;SDS011;7652;53.584;9.998;2022-09-09T17:33:06;1.50;;;1.40;;
15102;SDS011;7652;53.584;9.998;2022-09-09T17:36:10;1.90;;;1.40;;
15102;SDS011;7652;53.584;9.998;2022-09-09T17:39:15;2.17;;;1.40;;
15102;SDS011;7652;53.584;9.998;2022-09-09T17:42:18;3.37;;;1.70;;
15102;SDS011;7652;53.584;9.998;2022-09-09T17:45:21;1.70;;;1.37;;
15102;SDS011;7652;53.584;9.998;2022-09-09T17:48:25;2.23;;;1.63;;
15102;SDS011;7652;53.584;9.998;2022-09-09T17:51:29;2.63;;;1.40;;
15102;SDS011;7652;53.584;9.998;2022-09-09T17:54:33;4.70;;;2.23;;
15102;SDS011;7652;53.584;9.998;2022-09-09T17:57:37;2.47;;;1.90;;
15102;SDS011;7652;53.584;9.998;2022-09-09T18:00:40;4.77;;;2.00;;
15102;SDS011;7652;53.584;9.998;2022-09-09T18:03:45;3.40;;;2.17;;
15102;SDS011;7652;53.584;9.998;2022-09-09T18:06:50;2.57;;;2.00;;
15102;SDS011;7652;53.584;9.998;2022-09-09T18:09:54;3.53;;;2.37;;
15102;SDS011;7652;53.584;9.998;2022-09-09T18:12:57;2.97;;;2.30;;
15102;SDS011;7652;53.584;9.998;2022-09-09T18:16:05;2.40;;;2.20;;
15102;SDS011;7652;53.584;9.998;2022-09-09T18:19:11;3.43;;;2.13;;
15102;SDS011;7652;53.584;9.998;2022-09-09T18:22:16;3.43;;;2.33;;
15102;SDS011;7652;53.584;9.998;2022-09-09T18:25:20;3.10;;;2.80;;
15102;SDS011;7652;53.584;9.998;2022-09-09T18:28:23;2.90;;;2.67;;
15102;SDS011;7652;53.584;9.998;2022-09-09T18:31:27;3.47;;;3.17;;
15102;SDS011;7652;53.584;9.998;2022-09-09T18:34:32;4.10;;;2.67;;
15102;SDS011;7652;53.584;9.998;2022-09-09T18:37:35;3.20;;;2.90;;
15102;SDS011;7652;53.584;9.998;2022-09-09T18:40:40;6.20;;;3.37;;
15102;SDS011;7652;53.584;9.998;2022-09-09T18:43:43;5.47;;;3.43;;
15102;SDS011;7652;53.584;9.998;2022-09-09T18:46:46;6.07;;;3.57;;
15102;SDS011;7652;53.584;9.998;2022-09-09T18:49:52;4.20;;;3.60;;
15102;SDS011;7652;53.584;9.998;2022-09-09T18:52:55;4.60;;;3.90;;
15102;SDS011;7652;53.584;9.998;2022-09-09T18:56:00;5.63;;;4.23;;
15102;SDS011;7652;53.584;9.998;2022-09-09T18:59:05;4.50;;;4.10;;
15102;SDS011;7652;53.584;9.998;2022-09-09T19:02:10;4.90;;;4.27;;